My Meet Scores
Aubrina Hosticka, GymNasti - MyMeetScores.com
Top100 | Top Teams | Upcoming Meets | Completed Meets | Latest | Add Scores | Help| Support | Bookmark and Share

Aubrina Hosticka, GymNasti
Personal Bests
LevelVault BarsBeamFloorAA
39.6509.650 9.6259.47538.225
49.1008.950 9.4009.15036.575
59.4008.900 9.0009.15035.225
78.8259.100 9.3759.10036.000
Meet Scores
Date Meet Team Session Level Division Vault Bars Beam Floor AA
2020-01-24 Uga Invitational GymNasti 1A 7 Jr B 8.250 18 8.675 13 9.100 7 9.100 15 35.125 13
2020-01-10 St Jude Benefit Meet GymNasti 5B 7 Jr A 8.450 8 9.100 10 9.375 2 9.075 11T 36.000 6
2019-12-13 2019 St Nick GymNasti 2 7 JrA 8.825 11 8.375 7T 8.900 6 8.650 11 34.750 7T
2019-03-22 Illinois Gymnastics State Championships GymNasti 2 5 JR C 9.400 11T 8.750 19 7.925 28 9.150 17T 35.225 23
2019-02-15 Women's Midwest Open GymNasti 05 5 Junior B 8.250 12 8.550 9 8.750 7T 8.425 10 33.975 8
2019-02-08 IGI Chicago Style 2019 GymNasti 8 5 212 Lakeshore L5 A 8.525 19 8.900 10 9.000 12 8.725 15 35.150 14
2019-01-11 St Jude Benefit Meet GymNasti 9A 5 Jr B 8.800 12T 8.125 11 8.700 6 8.575 14 34.200 14
2018-12-07 St. Nick Invite 2018 GymNasti 1 5 JrA 8.650 15T 8.250 14T 8.800 12 7.750 19 33.450 17
2018-03-08 Level 4 & 5 State GymNasti All 4 Ch F 9.075 5 8.950 8 9.400 10T 9.150 10T 36.575 7
2018-02-23 Kinetic Classic GymNasti 6 4 Younger 8.300 73T 8.700 65T 8.850 40T 8.925 60T 34.775 65
2018-02-17 Women's Midwest Open GymNasti 12 4 Jr A 9.100 5 8.875 12 9.050 9T 8.850 11 35.875 11
2018-01-26 King Arthur Invitational GymNasti 2 4 Jr B 8.675 4 8.250 10T 9.175 3 8.950 6 35.050 5
2018-01-12 St Jude Benefit Meet GymNasti 2A 4 JrB 8.275 11 8.075 18 9.250 5T 8.750 7T 34.350 13
2017-12-08 St. Nick Invite GymNasti 7A 4 JrA 8.825 13 8.450 14T 9.050 10 8.675 13 35.000 15
2017-03-30 2017 Illinois Level 3 & 5 State GymNasti All 3 Yh A 9.650 2T 9.650 2T 9.550 2T 9.375 4 38.225 1
2017-02-17 Midwest Open GymNasti 1A 3 JR B 9.425 2 8.900 9 9.275 1T 9.475 4 37.075 3
2017-02-10 IGI Chicago Style Gymnastics Meet GymNasti 212L 3 JrB 9.050 12 9.300 6 9.275 3 9.175 14 36.800 6
2017-01-20 2017 Bravo Classic GymNasti 10B 3 8yrs 9.300 4T 9.650 2 9.350 2 8.750 11T 37.050 2
2016-12-09 St. Nick Invite GymNasti 5 3 All 9.525 11T 8.950 34T 9.625 5T 9.325 15T 37.425 15
2016-03-04 2016 Illinois Level 3 State Championships GymNasti 3 Child-B 9.175 20 8.925 13 8.375 12 8.625 21 35.100 16
2016-02-19 Midwest Open Womens 2016 GymNasti 1A 3 6-7 8.900 12 8.500 10 8.900 3 8.875 6 35.175 8
2016-01-22 King Arthur Invitational GymNasti S13 3 Jr.A 8.975 6 8.475 7 8.775 9 8.575 9 34.800 9
2015-12-04 2015 Ultimate Wish Classic GymNasti 11B 3 All 8.575 64 8.950 32 8.725 38 8.300 80 34.550 56
Get your scores on
a t-shirt, pin, or hoodie

www.lazysuits.com